createdAt,value
2019-04-23T00:06:06.667Z,95144.00
2019-04-23T00:16:30.258Z,95133.00
2019-04-23T00:22:05.598Z,95140.00
2019-04-23T00:28:10.079Z,95116.00
2019-04-23T00:39:06.002Z,95109.00
2019-04-23T00:56:32.655Z,95098.00
2019-04-23T01:01:26.491Z,95090.00
2019-04-23T01:06:29.158Z,95073.00
2019-04-23T01:11:57.923Z,95081.00
2019-04-23T01:17:02.761Z,95078.00
2019-04-23T01:22:14.570Z,95073.00
2019-04-23T01:27:51.135Z,95072.00
2019-04-23T01:32:59.472Z,95064.00
2019-04-23T01:37:58.002Z,95058.00
2019-04-23T01:43:05.711Z,95051.00
2019-04-23T01:48:11.087Z,95052.00
2019-04-23T01:53:24.723Z,95050.00
2019-04-23T01:58:32.231Z,95047.00
2019-04-23T02:03:43.436Z,95035.00
2019-04-23T02:20:30.205Z,95026.00
2019-04-23T02:31:15.428Z,95024.00
2019-04-23T02:46:05.559Z,95012.00
2019-04-23T02:51:12.555Z,95007.00
2019-04-23T03:06:48.076Z,94992.00
2019-04-23T03:16:56.424Z,94990.00
2019-04-23T03:22:06.025Z,94992.00
2019-04-23T03:42:38.752Z,94983.00
2019-04-23T03:47:56.216Z,94974.00
2019-04-23T03:52:54.818Z,94979.00
2019-04-23T03:58:05.260Z,94977.00
2019-04-23T04:08:18.437Z,94966.00
2019-04-23T04:13:22.808Z,94953.00
2019-04-23T04:23:37.648Z,94659.00
2019-04-23T04:28:44.600Z,94980.00
2019-04-23T04:33:50.981Z,94967.00
2019-04-23T04:43:50.787Z,94963.00
2019-04-23T04:49:10.492Z,94975.00
2019-04-23T04:54:03.234Z,94962.00
2019-04-23T05:04:05.566Z,94961.00
2019-04-23T05:09:15.968Z,94956.00
2019-04-23T05:19:29.423Z,94960.00
2019-04-23T05:29:25.380Z,94967.00
2019-04-23T05:34:38.220Z,94962.00
2019-04-23T05:44:43.185Z,94962.00
2019-04-23T05:49:47.647Z,94970.00
2019-04-23T05:59:54.739Z,94963.00
2019-04-23T06:04:57.283Z,94969.00
2019-04-23T06:10:04.959Z,94971.00
2019-04-23T06:25:33.678Z,94971.00
2019-04-23T06:30:26.152Z,94976.00
2019-04-23T06:35:23.814Z,94969.00
2019-04-23T06:45:32.068Z,94970.00
2019-04-23T06:50:41.478Z,94972.00
2019-04-23T06:55:46.568Z,94974.00
2019-04-23T07:00:51.284Z,94966.00
2019-04-23T07:16:27.711Z,94964.00
2019-04-23T07:21:23.556Z,94961.00
2019-04-23T07:26:34.866Z,94971.00
2019-04-23T07:36:34.220Z,94961.00
2019-04-23T07:42:03.540Z,94965.00
2019-04-23T07:47:33.094Z,94959.00
2019-04-23T07:52:36.951Z,94958.00
2019-04-23T07:57:52.092Z,94961.00
2019-04-23T08:02:35.825Z,94957.00
2019-04-23T08:07:45.694Z,94959.00
2019-04-23T08:12:46.994Z,94962.00
2019-04-23T08:17:45.086Z,94953.00
2019-04-23T08:22:55.004Z,94952.00
2019-04-23T08:28:12.054Z,94955.00
2019-04-23T08:33:08.452Z,94955.00
2019-04-23T08:43:36.737Z,94962.00
2019-04-23T08:48:34.190Z,94964.00
2019-04-23T08:58:35.351Z,94980.00
2019-04-23T09:03:42.473Z,94976.00
2019-04-23T09:09:04.287Z,94974.00
2019-04-23T09:19:04.057Z,94970.00
2019-04-23T09:24:03.742Z,94975.00
2019-04-23T09:29:04.598Z,94968.00
2019-04-23T09:34:29.889Z,94966.00
2019-04-23T09:39:43.096Z,94968.00
2019-04-23T09:50:08.318Z,94957.00
2019-04-23T09:55:24.106Z,94950.00
2019-04-23T10:00:25.464Z,94949.00
2019-04-23T10:05:07.386Z,94936.00
2019-04-23T10:09:59.429Z,94933.00
2019-04-23T10:15:09.974Z,94937.00
2019-04-23T10:20:08.708Z,94936.00
2019-04-23T10:25:12.878Z,94929.00
2019-04-23T10:30:15.754Z,94932.00
2019-04-23T10:35:29.177Z,94934.00
2019-04-23T10:40:28.190Z,94934.00
2019-04-23T10:46:08.018Z,94932.00
2019-04-23T10:51:38.615Z,94926.00
2019-04-23T10:56:39.738Z,94929.00
2019-04-23T11:01:43.483Z,94930.00
2019-04-23T11:11:52.562Z,94919.00
2019-04-23T11:22:21.037Z,94930.00
2019-04-23T11:27:07.854Z,94917.00
2019-04-23T11:32:32.016Z,94925.00
2019-04-23T11:37:24.969Z,94922.00
2019-04-23T11:42:17.415Z,94923.00
2019-04-23T11:48:01.823Z,94926.00
2019-04-23T11:52:36.510Z,94935.00
2019-04-23T12:02:59.106Z,94918.00
2019-04-23T12:08:38.098Z,94928.00
2019-04-23T12:14:02.407Z,94933.00
2019-04-23T12:19:25.390Z,94933.00
2019-04-23T12:24:24.761Z,94942.00
2019-04-23T12:29:21.037Z,94936.00
2019-04-23T12:34:30.059Z,94928.00
2019-04-23T12:39:28.451Z,94932.00
2019-04-23T12:44:30.646Z,94926.00
2019-04-23T12:54:52.085Z,94932.00
2019-04-23T12:59:44.312Z,94915.00
2019-04-23T13:04:48.824Z,94924.00
2019-04-23T13:15:05.844Z,94909.00
2019-04-23T13:20:04.096Z,94917.00
2019-04-23T13:25:28.314Z,94912.00
2019-04-23T13:35:55.341Z,94915.00
2019-04-23T13:40:40.702Z,94921.00
2019-04-23T13:46:00.020Z,94904.00
2019-04-23T13:55:44.434Z,94909.00
2019-04-23T14:11:23.579Z,94925.00
2019-04-23T14:16:32.704Z,94917.00
2019-04-23T14:31:54.985Z,94915.00
2019-04-23T14:36:47.269Z,94911.00
2019-04-23T14:41:44.338Z,94904.00
2019-04-23T14:46:58.682Z,94906.00
2019-04-23T14:57:24.684Z,94917.00
2019-04-23T15:02:28.748Z,94912.00
2019-04-23T15:07:28.328Z,94924.00
2019-04-23T15:17:45.131Z,94934.00
2019-04-23T15:33:03.991Z,94930.00
2019-04-23T15:43:02.504Z,94945.00
2019-04-23T15:49:08.293Z,94940.00
2019-04-23T16:04:14.916Z,94949.00
2019-04-23T16:10:01.248Z,94953.00
2019-04-23T16:15:07.850Z,94958.00
2019-04-23T16:20:31.955Z,94947.00
2019-04-23T16:36:54.817Z,94960.00
2019-04-23T16:53:21.444Z,94958.00
2019-04-23T17:03:54.063Z,94964.00
2019-04-23T17:08:57.543Z,94972.00
2019-04-23T17:19:16.239Z,94966.00
2019-04-23T17:24:21.269Z,94970.00
2019-04-23T17:29:51.049Z,94960.00
2019-04-23T17:35:11.640Z,94972.00
2019-04-23T17:45:54.771Z,94970.00
2019-04-23T17:51:10.991Z,94973.00
2019-04-23T17:56:18.448Z,94986.00
2019-04-23T18:01:22.318Z,94988.00
2019-04-23T18:11:23.303Z,94993.00
2019-04-23T18:16:35.096Z,94986.00
2019-04-23T18:22:04.054Z,94990.00
2019-04-23T18:27:05.163Z,94989.00
2019-04-23T18:32:35.364Z,94990.00
2019-04-23T18:38:13.584Z,94994.00
2019-04-23T18:43:07.339Z,94993.00
2019-04-23T18:54:15.328Z,94998.00
2019-04-23T18:59:39.302Z,94999.00
2019-04-23T19:05:03.435Z,95000.00
2019-04-23T19:15:26.574Z,95007.00
2019-04-23T19:37:31.912Z,95017.00
2019-04-23T19:42:17.639Z,95027.00
2019-04-23T19:53:26.015Z,95035.00
2019-04-23T19:58:31.049Z,95039.00
2019-04-23T20:09:04.094Z,95029.00
2019-04-23T20:35:15.829Z,95034.00
2019-04-23T20:40:33.022Z,95032.00
2019-04-23T20:45:33.333Z,95034.00
2019-04-23T20:50:37.667Z,95027.00
2019-04-23T20:55:58.673Z,95028.00
2019-04-23T21:01:07.599Z,95021.00
2019-04-23T21:06:07.144Z,95025.00
2019-04-23T21:11:05.320Z,95038.00
2019-04-23T21:16:13.165Z,95027.00
2019-04-23T21:21:17.947Z,95027.00
2019-04-23T21:26:16.766Z,95025.00
2019-04-23T21:31:45.521Z,95019.00
2019-04-23T21:36:46.034Z,95029.00
2019-04-23T21:41:57.966Z,95013.00
2019-04-23T21:52:05.082Z,95031.00
2019-04-23T21:57:12.885Z,95017.00
2019-04-23T22:02:14.976Z,95035.00
2019-04-23T22:07:19.374Z,95035.00
2019-04-23T22:12:23.498Z,95038.00
2019-04-23T22:17:33.059Z,95039.00
2019-04-23T22:22:41.947Z,95040.00
2019-04-23T22:27:35.450Z,95037.00
2019-04-23T22:32:49.658Z,95042.00
2019-04-23T22:37:50.256Z,95047.00
2019-04-23T22:47:54.984Z,95047.00
2019-04-23T22:53:00.326Z,95060.00
2019-04-23T22:58:04.444Z,95051.00
2019-04-23T23:08:25.108Z,95053.00
2019-04-23T23:13:35.769Z,95058.00
2019-04-23T23:23:30.905Z,95066.00
2019-04-23T23:28:40.945Z,95053.00
2019-04-23T23:39:05.322Z,95051.00
2019-04-23T23:44:07.890Z,95059.00
2019-04-23T23:49:00.669Z,95064.00
